PKNJT WICM-WIHH
Flight info
| Callsign | PKNJT |
|---|---|
| Flight time | 0h 38m |
| Altitude | 14000 |
| Route | BND PW HLM |
| Aircraft | B58T/L-SDFGRY/C |
Departure
| Time | 2026-05-08 01:42 |
|---|---|
| Airport | Cibeureum Airport (WICM) |
Arrival
| Time | 2026-05-08 02:21 |
|---|---|
| Airport | Halim Perdanakusuma International Airport (WIHH) |
| Time | Latitude | Longitude | Altitude | Speed | Heading |
|---|---|---|---|---|---|
| 2026-05-08 01:37 | -7.34901 | 108.24628 | 1059 ft | 0 kts | 242° |
| 2026-05-08 01:38 | -7.34901 | 108.24627 | 1059 ft | 0 kts | 244° |
| 2026-05-08 01:39 | -7.34902 | 108.24625 | 1063 ft | 0 kts | 247° |
| 2026-05-08 01:41 | -7.34869 | 108.24617 | 1062 ft | 14 kts | 8° |
| 2026-05-08 01:41 | -7.34796 | 108.24680 | 1059 ft | 12 kts | 58° |
| 2026-05-08 01:41 | -7.34937 | 108.24787 | 1060 ft | 62 kts | 147° |
| 2026-05-08 01:42 | -7.35467 | 108.25129 | 1124 ft | 108 kts | 147° |
| 2026-05-08 01:42 | -7.36150 | 108.25581 | 1341 ft | 128 kts | 150° |
| 2026-05-08 01:42 | -7.36961 | 108.26037 | 1744 ft | 132 kts | 151° |
| 2026-05-08 01:42 | -7.37813 | 108.26400 | 2132 ft | 139 kts | 174° |
| 2026-05-08 01:43 | -7.38705 | 108.26009 | 2438 ft | 152 kts | 231° |
| 2026-05-08 01:43 | -7.38926 | 108.25009 | 2837 ft | 156 kts | 289° |
| 2026-05-08 01:43 | -7.38140 | 108.24293 | 3079 ft | 161 kts | 340° |
| 2026-05-08 01:43 | -7.37095 | 108.23932 | 3467 ft | 157 kts | 342° |
| 2026-05-08 01:44 | -7.36048 | 108.23589 | 3812 ft | 159 kts | 342° |
| 2026-05-08 01:44 | -7.34970 | 108.23203 | 4075 ft | 168 kts | 339° |
| 2026-05-08 01:44 | -7.33931 | 108.22635 | 4403 ft | 173 kts | 327° |
| 2026-05-08 01:44 | -7.32920 | 108.21948 | 4730 ft | 176 kts | 325° |
| 2026-05-08 01:45 | -7.31996 | 108.21121 | 5040 ft | 180 kts | 310° |
| 2026-05-08 01:45 | -7.31244 | 108.20112 | 5350 ft | 181 kts | 300° |
| 2026-05-08 01:45 | -7.30573 | 108.19038 | 5665 ft | 182 kts | 308° |
| 2026-05-08 01:45 | -7.29583 | 108.18256 | 5982 ft | 182 kts | 328° |
| 2026-05-08 01:46 | -7.28498 | 108.17584 | 6297 ft | 184 kts | 329° |
| 2026-05-08 01:46 | -7.27401 | 108.16907 | 6602 ft | 186 kts | 329° |
| 2026-05-08 01:46 | -7.26293 | 108.16218 | 6911 ft | 189 kts | 329° |
| 2026-05-08 01:46 | -7.25184 | 108.15528 | 7226 ft | 190 kts | 329° |
| 2026-05-08 01:47 | -7.24055 | 108.14831 | 7531 ft | 191 kts | 329° |
| 2026-05-08 01:47 | -7.22920 | 108.14141 | 7841 ft | 190 kts | 329° |
| 2026-05-08 01:47 | -7.21850 | 108.13371 | 8146 ft | 189 kts | 317° |
| 2026-05-08 01:48 | -7.20174 | 108.11343 | 8782 ft | 188 kts | 306° |
| 2026-05-08 01:48 | -7.19441 | 108.10249 | 9097 ft | 188 kts | 302° |
| 2026-05-08 01:48 | -7.18775 | 108.09114 | 9424 ft | 189 kts | 299° |
| 2026-05-08 01:48 | -7.18157 | 108.07945 | 9755 ft | 189 kts | 297° |
| 2026-05-08 01:49 | -7.17554 | 108.06760 | 10057 ft | 190 kts | 297° |
| 2026-05-08 01:49 | -7.16945 | 108.05576 | 10348 ft | 190 kts | 297° |
| 2026-05-08 01:49 | -7.16319 | 108.04395 | 10646 ft | 191 kts | 298° |
| 2026-05-08 01:49 | -7.15682 | 108.03224 | 10947 ft | 191 kts | 298° |
| 2026-05-08 01:50 | -7.15052 | 108.02051 | 11260 ft | 190 kts | 298° |
| 2026-05-08 01:50 | -7.14432 | 108.00872 | 11571 ft | 191 kts | 297° |
| 2026-05-08 01:50 | -7.13821 | 107.99700 | 11879 ft | 192 kts | 297° |
| 2026-05-08 01:50 | -7.13200 | 107.98509 | 12190 ft | 192 kts | 297° |
| 2026-05-08 01:51 | -7.12571 | 107.97318 | 12507 ft | 193 kts | 298° |
| 2026-05-08 01:51 | -7.11935 | 107.96125 | 12827 ft | 193 kts | 298° |
| 2026-05-08 01:51 | -7.11299 | 107.94931 | 13151 ft | 193 kts | 298° |
| 2026-05-08 01:51 | -7.10666 | 107.93734 | 13479 ft | 194 kts | 297° |
| 2026-05-08 01:52 | -7.10027 | 107.92518 | 13735 ft | 200 kts | 297° |
| 2026-05-08 01:52 | -7.09363 | 107.91255 | 13842 ft | 210 kts | 297° |
| 2026-05-08 01:52 | -7.08661 | 107.89927 | 13897 ft | 220 kts | 297° |
| 2026-05-08 01:52 | -7.07930 | 107.88545 | 13921 ft | 227 kts | 297° |
| 2026-05-08 01:53 | -7.07174 | 107.87118 | 13936 ft | 234 kts | 297° |
| 2026-05-08 01:53 | -7.06400 | 107.85655 | 13933 ft | 238 kts | 297° |
| 2026-05-08 01:53 | -7.05623 | 107.84183 | 13941 ft | 239 kts | 297° |
| 2026-05-08 01:53 | -7.04841 | 107.82692 | 13951 ft | 242 kts | 297° |
| 2026-05-08 01:54 | -7.04051 | 107.81196 | 13948 ft | 241 kts | 298° |
| 2026-05-08 01:54 | -7.03271 | 107.79729 | 13948 ft | 240 kts | 298° |
| 2026-05-08 01:54 | -7.02490 | 107.78256 | 13947 ft | 238 kts | 297° |
| 2026-05-08 01:54 | -7.01712 | 107.76781 | 13948 ft | 237 kts | 297° |
| 2026-05-08 01:55 | -7.00940 | 107.75316 | 13945 ft | 236 kts | 297° |
| 2026-05-08 01:55 | -7.00168 | 107.73854 | 13946 ft | 236 kts | 297° |
| 2026-05-08 01:55 | -6.99398 | 107.72400 | 13946 ft | 235 kts | 297° |
| 2026-05-08 01:55 | -6.98630 | 107.70948 | 13947 ft | 235 kts | 297° |
| 2026-05-08 01:56 | -6.97861 | 107.69492 | 13948 ft | 236 kts | 297° |
| 2026-05-08 01:56 | -6.97092 | 107.68035 | 13949 ft | 236 kts | 297° |
| 2026-05-08 01:56 | -6.96319 | 107.66575 | 13950 ft | 236 kts | 297° |
| 2026-05-08 01:56 | -6.95546 | 107.65113 | 13951 ft | 236 kts | 298° |
| 2026-05-08 01:57 | -6.94778 | 107.63661 | 13939 ft | 236 kts | 297° |
| 2026-05-08 01:57 | -6.94009 | 107.62206 | 13938 ft | 235 kts | 297° |
| 2026-05-08 01:57 | -6.93239 | 107.60748 | 13936 ft | 236 kts | 297° |
| 2026-05-08 01:57 | -6.92469 | 107.59289 | 13929 ft | 236 kts | 297° |
| 2026-05-08 01:58 | -6.91704 | 107.57844 | 13927 ft | 236 kts | 297° |
| 2026-05-08 01:58 | -6.90932 | 107.56386 | 13929 ft | 236 kts | 298° |
| 2026-05-08 01:58 | -6.90161 | 107.54929 | 13930 ft | 236 kts | 297° |
| 2026-05-08 01:58 | -6.89394 | 107.53474 | 13930 ft | 236 kts | 297° |
| 2026-05-08 01:59 | -6.88625 | 107.52020 | 13930 ft | 235 kts | 298° |
| 2026-05-08 01:59 | -6.87855 | 107.50566 | 13929 ft | 235 kts | 298° |
| 2026-05-08 01:59 | -6.87091 | 107.49121 | 13928 ft | 234 kts | 297° |
| 2026-05-08 01:59 | -6.86329 | 107.47674 | 13928 ft | 234 kts | 297° |
| 2026-05-08 02:00 | -6.85565 | 107.46222 | 13922 ft | 234 kts | 297° |
| 2026-05-08 02:00 | -6.84803 | 107.44773 | 13924 ft | 235 kts | 297° |
| 2026-05-08 02:00 | -6.84040 | 107.43317 | 13920 ft | 235 kts | 297° |
| 2026-05-08 02:00 | -6.83278 | 107.41859 | 13921 ft | 235 kts | 297° |
| 2026-05-08 02:01 | -6.82297 | 107.40572 | 13922 ft | 234 kts | 324° |
| 2026-05-08 02:01 | -6.80832 | 107.39974 | 13906 ft | 231 kts | 352° |
| 2026-05-08 02:01 | -6.79222 | 107.39737 | 13907 ft | 231 kts | 355° |
| 2026-05-08 02:01 | -6.77643 | 107.39577 | 13904 ft | 230 kts | 356° |
| 2026-05-08 02:02 | -6.76045 | 107.39440 | 13903 ft | 230 kts | 357° |
| 2026-05-08 02:02 | -6.74446 | 107.39313 | 13903 ft | 231 kts | 357° |
| 2026-05-08 02:02 | -6.72842 | 107.39191 | 13901 ft | 231 kts | 358° |
| 2026-05-08 02:02 | -6.71243 | 107.39070 | 13899 ft | 230 kts | 358° |
| 2026-05-08 02:03 | -6.69648 | 107.38952 | 13900 ft | 230 kts | 358° |
| 2026-05-08 02:03 | -6.68049 | 107.38832 | 13902 ft | 230 kts | 358° |
| 2026-05-08 02:03 | -6.66454 | 107.38715 | 13886 ft | 230 kts | 358° |
| 2026-05-08 02:03 | -6.64860 | 107.38597 | 13886 ft | 230 kts | 358° |
| 2026-05-08 02:04 | -6.63268 | 107.38479 | 13887 ft | 230 kts | 358° |
| 2026-05-08 02:04 | -6.61668 | 107.38362 | 13887 ft | 230 kts | 358° |
| 2026-05-08 02:04 | -6.60069 | 107.38244 | 13888 ft | 230 kts | 358° |
| 2026-05-08 02:04 | -6.58465 | 107.38126 | 13888 ft | 231 kts | 358° |
| 2026-05-08 02:05 | -6.56864 | 107.38009 | 13888 ft | 231 kts | 358° |
| 2026-05-08 02:05 | -6.55257 | 107.37895 | 13885 ft | 231 kts | 358° |
| 2026-05-08 02:05 | -6.53654 | 107.37777 | 13884 ft | 231 kts | 357° |
| 2026-05-08 02:05 | -6.52163 | 107.37275 | 13871 ft | 233 kts | 326° |
| 2026-05-08 02:06 | -6.51128 | 107.36039 | 13871 ft | 233 kts | 298° |
| 2026-05-08 02:06 | -6.50417 | 107.34573 | 13871 ft | 233 kts | 295° |
| 2026-05-08 02:06 | -6.49731 | 107.33095 | 13870 ft | 233 kts | 295° |
| 2026-05-08 02:06 | -6.49005 | 107.31636 | 13869 ft | 233 kts | 297° |
| 2026-05-08 02:07 | -6.48247 | 107.30192 | 13871 ft | 234 kts | 298° |
| 2026-05-08 02:07 | -6.47480 | 107.28730 | 13870 ft | 234 kts | 297° |
| 2026-05-08 02:07 | -6.46752 | 107.27294 | 13868 ft | 234 kts | 296° |
| 2026-05-08 02:07 | -6.46027 | 107.25831 | 13869 ft | 234 kts | 296° |
| 2026-05-08 02:08 | -6.45302 | 107.24369 | 13869 ft | 234 kts | 296° |
| 2026-05-08 02:08 | -6.44576 | 107.22906 | 13870 ft | 234 kts | 297° |
| 2026-05-08 02:08 | -6.43807 | 107.21444 | 13720 ft | 241 kts | 298° |
| 2026-05-08 02:08 | -6.43015 | 107.19927 | 13428 ft | 247 kts | 297° |
| 2026-05-08 02:09 | -6.42243 | 107.18397 | 13126 ft | 244 kts | 296° |
| 2026-05-08 02:09 | -6.41489 | 107.16874 | 12824 ft | 242 kts | 296° |
| 2026-05-08 02:09 | -6.40732 | 107.15366 | 12524 ft | 241 kts | 297° |
| 2026-05-08 02:09 | -6.39967 | 107.13869 | 12227 ft | 239 kts | 297° |
| 2026-05-08 02:10 | -6.39206 | 107.12386 | 11927 ft | 238 kts | 297° |
| 2026-05-08 02:10 | -6.38452 | 107.10903 | 11636 ft | 237 kts | 297° |
| 2026-05-08 02:10 | -6.37710 | 107.09431 | 11347 ft | 235 kts | 296° |
| 2026-05-08 02:10 | -6.36973 | 107.07968 | 11065 ft | 234 kts | 297° |
| 2026-05-08 02:11 | -6.36235 | 107.06514 | 10780 ft | 233 kts | 297° |
| 2026-05-08 02:11 | -6.35500 | 107.05070 | 10501 ft | 231 kts | 297° |
| 2026-05-08 02:11 | -6.34768 | 107.03633 | 10215 ft | 231 kts | 297° |
| 2026-05-08 02:11 | -6.34051 | 107.02217 | 9955 ft | 230 kts | 296° |
| 2026-05-08 02:12 | -6.33329 | 107.00787 | 9681 ft | 229 kts | 296° |
| 2026-05-08 02:12 | -6.32608 | 106.99365 | 9385 ft | 228 kts | 297° |
| 2026-05-08 02:12 | -6.31890 | 106.97951 | 9088 ft | 226 kts | 297° |
| 2026-05-08 02:12 | -6.31177 | 106.96550 | 8788 ft | 221 kts | 297° |
| 2026-05-08 02:13 | -6.30491 | 106.95198 | 8491 ft | 214 kts | 297° |
| 2026-05-08 02:13 | -6.29823 | 106.93880 | 8195 ft | 209 kts | 297° |
| 2026-05-08 02:13 | -6.29171 | 106.92592 | 7906 ft | 205 kts | 297° |
| 2026-05-08 02:13 | -6.28535 | 106.91336 | 7624 ft | 203 kts | 297° |
| 2026-05-08 02:14 | -6.27898 | 106.90082 | 7340 ft | 201 kts | 297° |
| 2026-05-08 02:14 | -6.27212 | 106.88872 | 7056 ft | 199 kts | 311° |
| 2026-05-08 02:14 | -6.26053 | 106.88190 | 6779 ft | 195 kts | 351° |
| 2026-05-08 02:14 | -6.24754 | 106.88385 | 6504 ft | 190 kts | 31° |
| 2026-05-08 02:15 | -6.23696 | 106.89163 | 6231 ft | 188 kts | 40° |
| 2026-05-08 02:15 | -6.22682 | 106.89995 | 5936 ft | 188 kts | 41° |
| 2026-05-08 02:15 | -6.21688 | 106.90841 | 5645 ft | 187 kts | 41° |
| 2026-05-08 02:15 | -6.20704 | 106.91693 | 5347 ft | 184 kts | 41° |
| 2026-05-08 02:16 | -6.19751 | 106.92530 | 4982 ft | 180 kts | 42° |
| 2026-05-08 02:16 | -6.18849 | 106.93380 | 4619 ft | 176 kts | 53° |
| 2026-05-08 02:16 | -6.18530 | 106.94519 | 4253 ft | 170 kts | 98° |
| 2026-05-08 02:16 | -6.19074 | 106.95499 | 3872 ft | 162 kts | 139° |
| 2026-05-08 02:17 | -6.19962 | 106.96201 | 3435 ft | 163 kts | 144° |
| 2026-05-08 02:17 | -6.20890 | 106.96853 | 3005 ft | 162 kts | 146° |
| 2026-05-08 02:17 | -6.21823 | 106.97483 | 2571 ft | 161 kts | 147° |
| 2026-05-08 02:17 | -6.22754 | 106.98104 | 2124 ft | 161 kts | 147° |
| 2026-05-08 02:18 | -6.23807 | 106.98380 | 1707 ft | 157 kts | 190° |
| 2026-05-08 02:18 | -6.24630 | 106.97828 | 1529 ft | 136 kts | 243° |
| 2026-05-08 02:18 | -6.24690 | 106.96957 | 1372 ft | 121 kts | 280° |
| 2026-05-08 02:18 | -6.24529 | 106.96144 | 1239 ft | 119 kts | 282° |
| 2026-05-08 02:19 | -6.24416 | 106.95344 | 1109 ft | 112 kts | 271° |
| 2026-05-08 02:19 | -6.24458 | 106.94599 | 978 ft | 103 kts | 262° |
| 2026-05-08 02:19 | -6.24593 | 106.93899 | 860 ft | 102 kts | 255° |
| 2026-05-08 02:19 | -6.24800 | 106.93218 | 747 ft | 102 kts | 249° |
| 2026-05-08 02:20 | -6.25053 | 106.92544 | 623 ft | 107 kts | 245° |
| 2026-05-08 02:20 | -6.25257 | 106.92082 | 575 ft | 111 kts | 240° |
| 2026-05-08 02:20 | -6.25634 | 106.91383 | 423 ft | 113 kts | 243° |
| 2026-05-08 02:20 | -6.26070 | 106.90408 | 186 ft | 115 kts | 243° |
| 2026-05-08 02:21 | -6.26286 | 106.89930 | 108 ft | 109 kts | 243° |
| 2026-05-08 02:21 | -6.26549 | 106.89359 | 91 ft | 73 kts | 244° |
| 2026-05-08 02:21 | -6.26698 | 106.89029 | 89 ft | 24 kts | 248° |
| 2026-05-08 02:21 | -6.26755 | 106.88908 | 90 ft | 9 kts | 252° |
| 2026-05-08 02:22 | -6.26745 | 106.88875 | 89 ft | 5 kts | 336° |
| 2026-05-08 02:22 | -6.26711 | 106.88861 | 90 ft | 6 kts | 331° |
| 2026-05-08 02:22 | -6.26672 | 106.88839 | 90 ft | 7 kts | 331° |
| 2026-05-08 02:22 | -6.26629 | 106.88817 | 87 ft | 7 kts | 337° |
| 2026-05-08 02:23 | -6.26602 | 106.88784 | 88 ft | 6 kts | 266° |
| 2026-05-08 02:23 | -6.26610 | 106.88741 | 87 ft | 6 kts | 260° |
| 2026-05-08 02:23 | -6.26587 | 106.88718 | 88 ft | 5 kts | 332° |
| 2026-05-08 02:23 | -6.26572 | 106.88711 | 87 ft | 0 kts | 335° |
| 2026-05-08 02:24 | -6.26562 | 106.88706 | 87 ft | 0 kts | 336° |
| 2026-05-08 02:24 | -6.26561 | 106.88706 | 87 ft | 0 kts | 340° |